Accueil
METAR-TAF:

METAR-TAF

Aéroports :

Aéroport de Londres-Heathrow

Londres-Heathrow, Angleterre

latitude: 51-29N, longitude: 000-27W, altitude: 24 m

Observation

Le bulletin a été fait il y a 27 minutes, à 10:50 UTC
Vent 5 kt de sud-ouest, variant entre est/sud-est et ouest/nord-ouest
Température 23°C
Humidité 61%
Pression 1021 hPa
Visibilité 10 km ou plus
Nuages fragmentés à une hauteur de 3000 ft

METAR: EGLL 201050Z AUTO 23005KT 120V290 9999 BKN030 23/15 Q1021 NOSIG

Heure: 12:17 (11:17 UTC)

Prévision

Le bulletin a été fait il y a 6 heures et 24 minutes, à 04:53 UTC
Prévision valable du 20 à 06 UTC au 21 à 12 UTC
Vent 6 kt de ouest/sud-ouest
Visibilité 10 km ou plus
Nuages fragmentés à une hauteur de 3500 ft
Probabilité 30% :
Temporairement
du 21 à 04 UTC au 21 à 07 UTC
Visibilité: 6000 m

TAF: EGLL 200453Z 2006/2112 25006KT 9999 BKN035 PROB30 TEMPO 2104/2107 6000

Observations et prévisions météorologiques de plus de 4000 aéroports (messages METAR et TAF).

Les stations disponibles sont représentées par des disques jaunes et rouges sur la carte.

Passer la souris dessus pour voir le nom de la station.

Cliquer dessus pour voir les observations et prévisions météorologiques.

Pour changer de carte: cliquez sur les boutons verts avec une croix noire pour zoomer, sur le bouton vert avec un tiret pour effectuer un zoom arrière, ou sur les flèches vertes pour les cartes adjacentes.


METAR-TAF: